sensor_id;sensor_type;location;lat;lon;timestamp;P1;durP1;ratioP1;P2;durP2;ratioP2
74749;SDS011;63269;53.330;-6.288;2023-04-04T00:00:51;6.95;;;2.28;;
74749;SDS011;63269;53.330;-6.288;2023-04-04T00:03:16;6.85;;;2.28;;
74749;SDS011;63269;53.330;-6.288;2023-04-04T00:05:43;6.82;;;2.58;;
74749;SDS011;63269;53.330;-6.288;2023-04-04T00:08:09;4.88;;;1.83;;
74749;SDS011;63269;53.330;-6.288;2023-04-04T00:10:34;5.35;;;2.03;;
74749;SDS011;63269;53.330;-6.288;2023-04-04T00:13:00;5.50;;;1.90;;
74749;SDS011;63269;53.330;-6.288;2023-04-04T00:15:26;4.93;;;1.95;;
74749;SDS011;63269;53.330;-6.288;2023-04-04T00:17:52;4.63;;;2.15;;
74749;SDS011;63269;53.330;-6.288;2023-04-04T00:20:17;5.05;;;1.85;;
74749;SDS011;63269;53.330;-6.288;2023-04-04T00:22:43;4.80;;;2.00;;
74749;SDS011;63269;53.330;-6.288;2023-04-04T00:25:09;4.88;;;1.75;;
74749;SDS011;63269;53.330;-6.288;2023-04-04T00:27:34;4.28;;;1.80;;
74749;SDS011;63269;53.330;-6.288;2023-04-04T00:30:00;7.43;;;2.63;;
74749;SDS011;63269;53.330;-6.288;2023-04-04T00:32:25;4.50;;;1.52;;
74749;SDS011;63269;53.330;-6.288;2023-04-04T00:34:54;4.78;;;1.88;;
74749;SDS011;63269;53.330;-6.288;2023-04-04T00:37:21;4.72;;;1.85;;
74749;SDS011;63269;53.330;-6.288;2023-04-04T00:39:46;7.43;;;2.10;;
74749;SDS011;63269;53.330;-6.288;2023-04-04T00:42:12;4.90;;;2.28;;
74749;SDS011;63269;53.330;-6.288;2023-04-04T00:44:37;4.57;;;2.05;;
74749;SDS011;63269;53.330;-6.288;2023-04-04T00:47:03;5.60;;;1.80;;
74749;SDS011;63269;53.330;-6.288;2023-04-04T00:49:28;4.43;;;2.00;;
74749;SDS011;63269;53.330;-6.288;2023-04-04T00:51:54;4.63;;;1.80;;
74749;SDS011;63269;53.330;-6.288;2023-04-04T00:54:19;3.05;;;1.20;;
74749;SDS011;63269;53.330;-6.288;2023-04-04T00:56:45;5.60;;;1.80;;
74749;SDS011;63269;53.330;-6.288;2023-04-04T00:59:11;2.97;;;1.73;;
74749;SDS011;63269;53.330;-6.288;2023-04-04T01:01:37;3.17;;;1.27;;
74749;SDS011;63269;53.330;-6.288;2023-04-04T01:04:03;2.85;;;1.40;;
74749;SDS011;63269;53.330;-6.288;2023-04-04T01:06:29;3.25;;;1.63;;
74749;SDS011;63269;53.330;-6.288;2023-04-04T01:08:56;4.88;;;2.15;;
74749;SDS011;63269;53.330;-6.288;2023-04-04T01:11:22;5.45;;;2.05;;
74749;SDS011;63269;53.330;-6.288;2023-04-04T01:13:49;3.88;;;1.75;;
74749;SDS011;63269;53.330;-6.288;2023-04-04T01:16:16;3.97;;;1.60;;
74749;SDS011;63269;53.330;-6.288;2023-04-04T01:18:41;3.95;;;1.50;;
74749;SDS011;63269;53.330;-6.288;2023-04-04T01:21:09;3.85;;;2.03;;
74749;SDS011;63269;53.330;-6.288;2023-04-04T01:26:24;3.50;;;1.52;;
74749;SDS011;63269;53.330;-6.288;2023-04-04T01:28:55;4.30;;;2.05;;
74749;SDS011;63269;53.330;-6.288;2023-04-04T01:31:34;5.93;;;1.88;;
74749;SDS011;63269;53.330;-6.288;2023-04-04T01:34:05;5.93;;;2.13;;
74749;SDS011;63269;53.330;-6.288;2023-04-04T01:39:31;4.60;;;1.52;;
74749;SDS011;63269;53.330;-6.288;2023-04-04T01:42:01;2.72;;;1.40;;
74749;SDS011;63269;53.330;-6.288;2023-04-04T01:44:27;4.68;;;1.63;;
74749;SDS011;63269;53.330;-6.288;2023-04-04T01:46:53;5.97;;;2.38;;
74749;SDS011;63269;53.330;-6.288;2023-04-04T01:49:19;3.97;;;1.60;;
74749;SDS011;63269;53.330;-6.288;2023-04-04T01:51:46;2.65;;;1.30;;
74749;SDS011;63269;53.330;-6.288;2023-04-04T01:54:13;4.07;;;1.33;;
74749;SDS011;63269;53.330;-6.288;2023-04-04T01:56:40;5.38;;;1.75;;
74749;SDS011;63269;53.330;-6.288;2023-04-04T01:59:06;4.15;;;1.58;;
74749;SDS011;63269;53.330;-6.288;2023-04-04T02:01:31;4.63;;;2.03;;
74749;SDS011;63269;53.330;-6.288;2023-04-04T02:03:57;6.68;;;1.90;;
74749;SDS011;63269;53.330;-6.288;2023-04-04T02:06:22;3.67;;;1.42;;
74749;SDS011;63269;53.330;-6.288;2023-04-04T02:08:48;4.13;;;1.60;;
74749;SDS011;63269;53.330;-6.288;2023-04-04T02:11:13;4.28;;;1.83;;
74749;SDS011;63269;53.330;-6.288;2023-04-04T02:13:39;3.88;;;1.52;;
74749;SDS011;63269;53.330;-6.288;2023-04-04T02:16:08;4.93;;;1.75;;
74749;SDS011;63269;53.330;-6.288;2023-04-04T02:18:34;4.57;;;2.00;;
74749;SDS011;63269;53.330;-6.288;2023-04-04T02:21:00;3.88;;;1.88;;
74749;SDS011;63269;53.330;-6.288;2023-04-04T02:23:26;2.92;;;1.50;;
74749;SDS011;63269;53.330;-6.288;2023-04-04T02:25:51;4.88;;;1.52;;
74749;SDS011;63269;53.330;-6.288;2023-04-04T02:28:17;2.88;;;1.40;;
74749;SDS011;63269;53.330;-6.288;2023-04-04T02:30:43;5.05;;;2.55;;
74749;SDS011;63269;53.330;-6.288;2023-04-04T02:33:09;4.45;;;1.77;;
74749;SDS011;63269;53.330;-6.288;2023-04-04T02:35:34;5.65;;;1.95;;
74749;SDS011;63269;53.330;-6.288;2023-04-04T02:38:00;4.50;;;1.35;;
74749;SDS011;63269;53.330;-6.288;2023-04-04T02:40:25;2.95;;;1.55;;
74749;SDS011;63269;53.330;-6.288;2023-04-04T02:42:51;2.95;;;1.27;;
74749;SDS011;63269;53.330;-6.288;2023-04-04T02:45:16;3.25;;;1.40;;
74749;SDS011;63269;53.330;-6.288;2023-04-04T02:47:42;3.97;;;1.23;;
74749;SDS011;63269;53.330;-6.288;2023-04-04T02:50:14;3.72;;;1.33;;
74749;SDS011;63269;53.330;-6.288;2023-04-04T02:52:40;3.72;;;1.40;;
74749;SDS011;63269;53.330;-6.288;2023-04-04T02:55:05;3.30;;;1.80;;
74749;SDS011;63269;53.330;-6.288;2023-04-04T02:57:32;5.90;;;1.60;;
74749;SDS011;63269;53.330;-6.288;2023-04-04T02:59:58;2.60;;;1.15;;
74749;SDS011;63269;53.330;-6.288;2023-04-04T03:02:23;3.50;;;1.35;;
74749;SDS011;63269;53.330;-6.288;2023-04-04T03:04:49;4.65;;;1.38;;
74749;SDS011;63269;53.330;-6.288;2023-04-04T03:07:14;2.03;;;1.00;;
74749;SDS011;63269;53.330;-6.288;2023-04-04T03:09:40;5.15;;;1.83;;
74749;SDS011;63269;53.330;-6.288;2023-04-04T03:12:09;5.18;;;1.73;;
74749;SDS011;63269;53.330;-6.288;2023-04-04T03:14:34;5.63;;;1.60;;
74749;SDS011;63269;53.330;-6.288;2023-04-04T03:17:00;5.78;;;1.90;;
74749;SDS011;63269;53.330;-6.288;2023-04-04T03:19:26;3.15;;;1.13;;
74749;SDS011;63269;53.330;-6.288;2023-04-04T03:21:52;4.13;;;1.10;;
74749;SDS011;63269;53.330;-6.288;2023-04-04T03:24:17;2.17;;;1.13;;
74749;SDS011;63269;53.330;-6.288;2023-04-04T03:26:42;4.65;;;1.88;;
74749;SDS011;63269;53.330;-6.288;2023-04-04T03:29:08;2.53;;;1.40;;
74749;SDS011;63269;53.330;-6.288;2023-04-04T03:31:33;3.33;;;1.33;;
74749;SDS011;63269;53.330;-6.288;2023-04-04T03:33:59;2.75;;;1.20;;
74749;SDS011;63269;53.330;-6.288;2023-04-04T03:36:25;2.75;;;1.25;;
74749;SDS011;63269;53.330;-6.288;2023-04-04T03:38:50;3.58;;;1.67;;
74749;SDS011;63269;53.330;-6.288;2023-04-04T03:41:16;3.58;;;1.30;;
74749;SDS011;63269;53.330;-6.288;2023-04-04T03:43:41;3.10;;;1.40;;
74749;SDS011;63269;53.330;-6.288;2023-04-04T03:46:07;4.05;;;1.25;;
74749;SDS011;63269;53.330;-6.288;2023-04-04T03:48:32;3.50;;;1.55;;
74749;SDS011;63269;53.330;-6.288;2023-04-04T03:50:58;2.55;;;1.25;;
74749;SDS011;63269;53.330;-6.288;2023-04-04T03:53:27;2.33;;;1.35;;
74749;SDS011;63269;53.330;-6.288;2023-04-04T03:55:54;2.72;;;1.40;;
74749;SDS011;63269;53.330;-6.288;2023-04-04T03:58:20;3.05;;;1.42;;
74749;SDS011;63269;53.330;-6.288;2023-04-04T04:00:45;2.78;;;1.10;;
74749;SDS011;63269;53.330;-6.288;2023-04-04T04:03:11;4.20;;;1.30;;
74749;SDS011;63269;53.330;-6.288;2023-04-04T04:05:36;3.05;;;1.30;;
74749;SDS011;63269;53.330;-6.288;2023-04-04T04:08:02;4.65;;;1.48;;
74749;SDS011;63269;53.330;-6.288;2023-04-04T04:10:27;4.75;;;1.60;;
74749;SDS011;63269;53.330;-6.288;2023-04-04T04:12:52;2.40;;;1.27;;
74749;SDS011;63269;53.330;-6.288;2023-04-04T04:15:18;3.17;;;1.45;;
74749;SDS011;63269;53.330;-6.288;2023-04-04T04:17:43;2.35;;;1.30;;
74749;SDS011;63269;53.330;-6.288;2023-04-04T04:20:09;2.58;;;1.38;;
74749;SDS011;63269;53.330;-6.288;2023-04-04T04:22:35;2.88;;;1.38;;
74749;SDS011;63269;53.330;-6.288;2023-04-04T04:25:01;3.35;;;1.40;;
74749;SDS011;63269;53.330;-6.288;2023-04-04T04:27:27;2.10;;;1.10;;
74749;SDS011;63269;53.330;-6.288;2023-04-04T04:29:54;2.85;;;1.27;;
74749;SDS011;63269;53.330;-6.288;2023-04-04T04:32:19;3.90;;;1.30;;
74749;SDS011;63269;53.330;-6.288;2023-04-04T04:34:45;2.47;;;1.13;;
74749;SDS011;63269;53.330;-6.288;2023-04-04T04:37:10;4.47;;;1.60;;
74749;SDS011;63269;53.330;-6.288;2023-04-04T04:39:36;3.45;;;1.63;;
74749;SDS011;63269;53.330;-6.288;2023-04-04T04:42:02;3.83;;;1.52;;
74749;SDS011;63269;53.330;-6.288;2023-04-04T04:44:27;4.38;;;1.42;;
74749;SDS011;63269;53.330;-6.288;2023-04-04T04:46:53;3.70;;;1.25;;
74749;SDS011;63269;53.330;-6.288;2023-04-04T04:49:18;2.67;;;1.20;;
74749;SDS011;63269;53.330;-6.288;2023-04-04T04:51:43;3.97;;;1.38;;
74749;SDS011;63269;53.330;-6.288;2023-04-04T04:54:09;2.45;;;1.27;;
74749;SDS011;63269;53.330;-6.288;2023-04-04T04:56:35;2.83;;;1.30;;
74749;SDS011;63269;53.330;-6.288;2023-04-04T04:59:01;3.65;;;1.60;;
74749;SDS011;63269;53.330;-6.288;2023-04-04T05:01:27;2.97;;;1.23;;
74749;SDS011;63269;53.330;-6.288;2023-04-04T05:03:52;2.88;;;1.40;;
74749;SDS011;63269;53.330;-6.288;2023-04-04T05:06:17;3.45;;;1.48;;
74749;SDS011;63269;53.330;-6.288;2023-04-04T05:08:43;3.58;;;1.00;;
74749;SDS011;63269;53.330;-6.288;2023-04-04T05:11:08;4.57;;;1.38;;
74749;SDS011;63269;53.330;-6.288;2023-04-04T05:13:33;4.55;;;1.45;;
74749;SDS011;63269;53.330;-6.288;2023-04-04T05:15:59;3.15;;;1.20;;
74749;SDS011;63269;53.330;-6.288;2023-04-04T05:18:25;3.60;;;1.75;;
74749;SDS011;63269;53.330;-6.288;2023-04-04T05:20:52;2.67;;;1.67;;
74749;SDS011;63269;53.330;-6.288;2023-04-04T05:23:18;4.35;;;1.33;;
74749;SDS011;63269;53.330;-6.288;2023-04-04T05:25:44;3.42;;;1.95;;
74749;SDS011;63269;53.330;-6.288;2023-04-04T05:28:09;3.85;;;1.60;;
74749;SDS011;63269;53.330;-6.288;2023-04-04T05:30:34;3.20;;;1.17;;
74749;SDS011;63269;53.330;-6.288;2023-04-04T05:33:00;2.78;;;1.35;;
74749;SDS011;63269;53.330;-6.288;2023-04-04T05:35:25;2.35;;;1.23;;
74749;SDS011;63269;53.330;-6.288;2023-04-04T05:37:51;2.75;;;1.15;;
74749;SDS011;63269;53.330;-6.288;2023-04-04T05:40:16;4.65;;;1.50;;
74749;SDS011;63269;53.330;-6.288;2023-04-04T05:42:41;4.03;;;0.95;;
74749;SDS011;63269;53.330;-6.288;2023-04-04T05:45:08;3.47;;;1.30;;
74749;SDS011;63269;53.330;-6.288;2023-04-04T05:47:34;3.10;;;1.15;;
74749;SDS011;63269;53.330;-6.288;2023-04-04T05:50:00;2.70;;;1.35;;
74749;SDS011;63269;53.330;-6.288;2023-04-04T05:52:25;2.58;;;1.15;;
74749;SDS011;63269;53.330;-6.288;2023-04-04T05:54:51;3.35;;;1.35;;
74749;SDS011;63269;53.330;-6.288;2023-04-04T05:57:16;3.85;;;1.55;;
74749;SDS011;63269;53.330;-6.288;2023-04-04T05:59:42;2.83;;;1.20;;
74749;SDS011;63269;53.330;-6.288;2023-04-04T06:02:07;2.47;;;1.10;;
74749;SDS011;63269;53.330;-6.288;2023-04-04T06:04:33;2.17;;;1.00;;
74749;SDS011;63269;53.330;-6.288;2023-04-04T06:06:58;2.78;;;1.33;;
74749;SDS011;63269;53.330;-6.288;2023-04-04T06:09:25;3.00;;;1.15;;
74749;SDS011;63269;53.330;-6.288;2023-04-04T06:11:51;2.90;;;1.08;;
74749;SDS011;63269;53.330;-6.288;2023-04-04T06:14:16;3.42;;;1.15;;
74749;SDS011;63269;53.330;-6.288;2023-04-04T06:16:42;2.13;;;1.20;;
74749;SDS011;63269;53.330;-6.288;2023-04-04T06:19:07;2.55;;;1.10;;
74749;SDS011;63269;53.330;-6.288;2023-04-04T06:21:33;2.58;;;1.23;;
74749;SDS011;63269;53.330;-6.288;2023-04-04T06:23:58;2.38;;;1.10;;
74749;SDS011;63269;53.330;-6.288;2023-04-04T06:26:24;1.83;;;0.95;;
74749;SDS011;63269;53.330;-6.288;2023-04-04T06:28:50;4.30;;;1.10;;
74749;SDS011;63269;53.330;-6.288;2023-04-04T06:31:17;4.05;;;1.40;;
74749;SDS011;63269;53.330;-6.288;2023-04-04T06:33:42;3.47;;;1.10;;
74749;SDS011;63269;53.330;-6.288;2023-04-04T06:36:08;4.15;;;1.00;;
74749;SDS011;63269;53.330;-6.288;2023-04-04T06:38:33;2.88;;;1.00;;
74749;SDS011;63269;53.330;-6.288;2023-04-04T06:40:58;3.33;;;1.33;;
74749;SDS011;63269;53.330;-6.288;2023-04-04T06:43:24;4.10;;;1.27;;
74749;SDS011;63269;53.330;-6.288;2023-04-04T06:45:50;3.17;;;1.00;;
74749;SDS011;63269;53.330;-6.288;2023-04-04T06:48:15;2.60;;;1.10;;
74749;SDS011;63269;53.330;-6.288;2023-04-04T06:50:41;3.15;;;0.93;;
74749;SDS011;63269;53.330;-6.288;2023-04-04T06:53:06;2.65;;;1.23;;
74749;SDS011;63269;53.330;-6.288;2023-04-04T06:55:33;1.88;;;1.00;;
74749;SDS011;63269;53.330;-6.288;2023-04-04T06:57:58;3.63;;;1.08;;
74749;SDS011;63269;53.330;-6.288;2023-04-04T07:00:24;3.00;;;0.90;;
74749;SDS011;63269;53.330;-6.288;2023-04-04T07:02:55;4.68;;;1.50;;
74749;SDS011;63269;53.330;-6.288;2023-04-04T07:05:23;3.80;;;0.90;;
74749;SDS011;63269;53.330;-6.288;2023-04-04T07:07:50;4.53;;;1.10;;
74749;SDS011;63269;53.330;-6.288;2023-04-04T07:10:18;1.17;;;0.55;;
74749;SDS011;63269;53.330;-6.288;2023-04-04T07:12:45;2.00;;;1.25;;
74749;SDS011;63269;53.330;-6.288;2023-04-04T07:15:10;2.53;;;1.02;;
74749;SDS011;63269;53.330;-6.288;2023-04-04T07:17:36;4.97;;;1.92;;
74749;SDS011;63269;53.330;-6.288;2023-04-04T07:20:03;3.83;;;1.00;;
74749;SDS011;63269;53.330;-6.288;2023-04-04T07:22:29;2.92;;;1.20;;
74749;SDS011;63269;53.330;-6.288;2023-04-04T07:24:55;2.85;;;1.10;;
74749;SDS011;63269;53.330;-6.288;2023-04-04T07:27:20;2.47;;;1.10;;
74749;SDS011;63269;53.330;-6.288;2023-04-04T07:29:46;1.92;;;1.00;;
74749;SDS011;63269;53.330;-6.288;2023-04-04T07:32:11;2.13;;;0.85;;
74749;SDS011;63269;53.330;-6.288;2023-04-04T07:34:37;4.22;;;1.05;;
74749;SDS011;63269;53.330;-6.288;2023-04-04T07:37:02;5.55;;;1.20;;
74749;SDS011;63269;53.330;-6.288;2023-04-04T07:39:28;2.90;;;1.15;;
74749;SDS011;63269;53.330;-6.288;2023-04-04T07:41:53;1.90;;;1.10;;
74749;SDS011;63269;53.330;-6.288;2023-04-04T07:44:19;3.47;;;1.23;;
74749;SDS011;63269;53.330;-6.288;2023-04-04T07:46:44;2.65;;;1.00;;
74749;SDS011;63269;53.330;-6.288;2023-04-04T07:49:10;4.47;;;1.30;;
74749;SDS011;63269;53.330;-6.288;2023-04-04T07:51:36;4.25;;;1.48;;
74749;SDS011;63269;53.330;-6.288;2023-04-04T07:54:02;3.80;;;0.95;;
74749;SDS011;63269;53.330;-6.288;2023-04-04T07:56:28;3.20;;;1.38;;
74749;SDS011;63269;53.330;-6.288;2023-04-04T07:58:53;3.63;;;1.20;;
74749;SDS011;63269;53.330;-6.288;2023-04-04T08:01:18;1.73;;;0.80;;
74749;SDS011;63269;53.330;-6.288;2023-04-04T08:03:44;3.42;;;1.10;;
74749;SDS011;63269;53.330;-6.288;2023-04-04T08:06:09;3.78;;;1.42;;
74749;SDS011;63269;53.330;-6.288;2023-04-04T08:08:35;4.13;;;1.23;;
74749;SDS011;63269;53.330;-6.288;2023-04-04T08:11:00;2.42;;;0.98;;
74749;SDS011;63269;53.330;-6.288;2023-04-04T08:13:26;2.53;;;1.30;;
74749;SDS011;63269;53.330;-6.288;2023-04-04T08:15:51;2.85;;;1.30;;
74749;SDS011;63269;53.330;-6.288;2023-04-04T08:18:17;3.47;;;1.13;;
74749;SDS011;63269;53.330;-6.288;2023-04-04T08:20:43;6.85;;;1.10;;
74749;SDS011;63269;53.330;-6.288;2023-04-04T08:23:09;3.45;;;1.30;;
74749;SDS011;63269;53.330;-6.288;2023-04-04T08:25:34;3.72;;;1.40;;
74749;SDS011;63269;53.330;-6.288;2023-04-04T08:28:00;2.83;;;1.00;;
74749;SDS011;63269;53.330;-6.288;2023-04-04T08:30:28;2.65;;;1.25;;
74749;SDS011;63269;53.330;-6.288;2023-04-04T08:32:54;4.28;;;1.10;;
74749;SDS011;63269;53.330;-6.288;2023-04-04T08:35:19;6.43;;;1.13;;
74749;SDS011;63269;53.330;-6.288;2023-04-04T08:37:45;3.30;;;1.20;;
74749;SDS011;63269;53.330;-6.288;2023-04-04T08:40:11;3.35;;;1.20;;
74749;SDS011;63269;53.330;-6.288;2023-04-04T08:42:37;5.20;;;1.08;;
74749;SDS011;63269;53.330;-6.288;2023-04-04T08:45:05;5.07;;;1.35;;
74749;SDS011;63269;53.330;-6.288;2023-04-04T08:47:33;4.43;;;1.95;;
74749;SDS011;63269;53.330;-6.288;2023-04-04T08:50:00;5.05;;;1.40;;
74749;SDS011;63269;53.330;-6.288;2023-04-04T08:52:29;4.32;;;1.38;;
74749;SDS011;63269;53.330;-6.288;2023-04-04T08:54:56;5.05;;;1.38;;
74749;SDS011;63269;53.330;-6.288;2023-04-04T08:57:22;4.25;;;1.50;;
74749;SDS011;63269;53.330;-6.288;2023-04-04T08:59:48;5.05;;;1.77;;
74749;SDS011;63269;53.330;-6.288;2023-04-04T09:02:14;4.80;;;1.30;;
74749;SDS011;63269;53.330;-6.288;2023-04-04T09:04:47;6.03;;;2.00;;
74749;SDS011;63269;53.330;-6.288;2023-04-04T09:07:13;6.18;;;2.22;;
74749;SDS011;63269;53.330;-6.288;2023-04-04T09:09:41;3.45;;;1.25;;
74749;SDS011;63269;53.330;-6.288;2023-04-04T09:12:09;7.00;;;2.20;;
74749;SDS011;63269;53.330;-6.288;2023-04-04T09:14:36;4.03;;;1.40;;
74749;SDS011;63269;53.330;-6.288;2023-04-04T09:17:03;5.43;;;1.48;;
74749;SDS011;63269;53.330;-6.288;2023-04-04T09:19:29;4.65;;;1.67;;
74749;SDS011;63269;53.330;-6.288;2023-04-04T09:21:55;5.53;;;1.70;;
74749;SDS011;63269;53.330;-6.288;2023-04-04T09:24:20;5.68;;;1.50;;
74749;SDS011;63269;53.330;-6.288;2023-04-04T09:26:46;5.65;;;1.60;;
74749;SDS011;63269;53.330;-6.288;2023-04-04T09:29:13;2.40;;;1.23;;
74749;SDS011;63269;53.330;-6.288;2023-04-04T09:31:42;4.53;;;1.70;;
74749;SDS011;63269;53.330;-6.288;2023-04-04T09:34:10;5.85;;;1.50;;
74749;SDS011;63269;53.330;-6.288;2023-04-04T09:39:06;3.70;;;1.75;;
74749;SDS011;63269;53.330;-6.288;2023-04-04T09:41:32;3.42;;;1.40;;
74749;SDS011;63269;53.330;-6.288;2023-04-04T09:43:58;5.65;;;1.65;;
74749;SDS011;63269;53.330;-6.288;2023-04-04T09:46:24;6.05;;;2.20;;
74749;SDS011;63269;53.330;-6.288;2023-04-04T09:48:51;6.10;;;1.20;;
74749;SDS011;63269;53.330;-6.288;2023-04-04T09:51:17;7.30;;;2.03;;
74749;SDS011;63269;53.330;-6.288;2023-04-04T09:53:45;4.20;;;1.55;;
74749;SDS011;63269;53.330;-6.288;2023-04-04T09:56:12;3.85;;;1.70;;
74749;SDS011;63269;53.330;-6.288;2023-04-04T09:58:38;3.72;;;1.40;;
74749;SDS011;63269;53.330;-6.288;2023-04-04T10:01:07;3.63;;;1.60;;
74749;SDS011;63269;53.330;-6.288;2023-04-04T10:03:36;4.68;;;1.65;;
74749;SDS011;63269;53.330;-6.288;2023-04-04T10:06:03;3.58;;;1.58;;
74749;SDS011;63269;53.330;-6.288;2023-04-04T10:08:30;6.07;;;1.45;;
74749;SDS011;63269;53.330;-6.288;2023-04-04T10:10:57;5.03;;;1.80;;
74749;SDS011;63269;53.330;-6.288;2023-04-04T10:13:24;6.65;;;1.52;;
74749;SDS011;63269;53.330;-6.288;2023-04-04T10:15:54;5.95;;;1.70;;
74749;SDS011;63269;53.330;-6.288;2023-04-04T10:18:24;4.20;;;1.67;;
74749;SDS011;63269;53.330;-6.288;2023-04-04T10:20:53;3.20;;;1.55;;
74749;SDS011;63269;53.330;-6.288;2023-04-04T10:23:21;4.05;;;1.75;;
74749;SDS011;63269;53.330;-6.288;2023-04-04T10:25:49;4.20;;;1.77;;
74749;SDS011;63269;53.330;-6.288;2023-04-04T10:28:18;3.70;;;1.70;;
74749;SDS011;63269;53.330;-6.288;2023-04-04T10:30:57;5.47;;;1.90;;
74749;SDS011;63269;53.330;-6.288;2023-04-04T10:33:38;5.75;;;2.10;;
74749;SDS011;63269;53.330;-6.288;2023-04-04T10:36:08;4.32;;;1.83;;
74749;SDS011;63269;53.330;-6.288;2023-04-04T10:38:53;3.00;;;1.13;;
74749;SDS011;63269;53.330;-6.288;2023-04-04T10:41:37;3.22;;;1.52;;
74749;SDS011;63269;53.330;-6.288;2023-04-04T10:44:22;5.20;;;1.70;;
74749;SDS011;63269;53.330;-6.288;2023-04-04T10:46:52;3.80;;;1.75;;
74749;SDS011;63269;53.330;-6.288;2023-04-04T10:49:19;4.45;;;1.70;;
74749;SDS011;63269;53.330;-6.288;2023-04-04T10:51:46;3.20;;;1.88;;
74749;SDS011;63269;53.330;-6.288;2023-04-04T10:54:13;4.93;;;1.75;;
74749;SDS011;63269;53.330;-6.288;2023-04-04T10:56:39;3.90;;;1.50;;
74749;SDS011;63269;53.330;-6.288;2023-04-04T10:59:14;3.42;;;1.30;;
74749;SDS011;63269;53.330;-6.288;2023-04-04T11:01:54;4.32;;;1.50;;
74749;SDS011;63269;53.330;-6.288;2023-04-04T11:04:30;7.40;;;1.80;;
74749;SDS011;63269;53.330;-6.288;2023-04-04T11:07:09;3.30;;;1.30;;
74749;SDS011;63269;53.330;-6.288;2023-04-04T11:09:52;5.18;;;1.30;;
74749;SDS011;63269;53.330;-6.288;2023-04-04T11:12:21;3.25;;;1.27;;
74749;SDS011;63269;53.330;-6.288;2023-04-04T11:20:32;2.85;;;1.38;;
74749;SDS011;63269;53.330;-6.288;2023-04-04T11:23:06;4.07;;;1.17;;
74749;SDS011;63269;53.330;-6.288;2023-04-04T11:25:41;5.70;;;1.40;;
74749;SDS011;63269;53.330;-6.288;2023-04-04T11:28:23;8.05;;;1.60;;
74749;SDS011;63269;53.330;-6.288;2023-04-04T11:31:21;4.38;;;1.40;;
74749;SDS011;63269;53.330;-6.288;2023-04-04T11:41:42;5.05;;;1.50;;
74749;SDS011;63269;53.330;-6.288;2023-04-04T11:44:14;5.70;;;1.30;;
74749;SDS011;63269;53.330;-6.288;2023-04-04T11:46:40;4.57;;;1.60;;
74749;SDS011;63269;53.330;-6.288;2023-04-04T11:49:06;7.30;;;1.20;;
74749;SDS011;63269;53.330;-6.288;2023-04-04T11:51:32;12.40;;;1.60;;
74749;SDS011;63269;53.330;-6.288;2023-04-04T11:53:57;5.10;;;1.15;;
74749;SDS011;63269;53.330;-6.288;2023-04-04T11:56:23;4.10;;;1.40;;
74749;SDS011;63269;53.330;-6.288;2023-04-04T11:58:49;2.67;;;1.48;;
74749;SDS011;63269;53.330;-6.288;2023-04-04T12:01:15;5.53;;;1.80;;
74749;SDS011;63269;53.330;-6.288;2023-04-04T12:03:42;4.55;;;1.15;;
74749;SDS011;63269;53.330;-6.288;2023-04-04T12:06:09;3.67;;;1.75;;
74749;SDS011;63269;53.330;-6.288;2023-04-04T12:08:35;6.60;;;1.98;;
74749;SDS011;63269;53.330;-6.288;2023-04-04T12:11:05;4.40;;;1.48;;
74749;SDS011;63269;53.330;-6.288;2023-04-04T12:13:33;5.88;;;1.40;;
74749;SDS011;63269;53.330;-6.288;2023-04-04T12:15:58;3.78;;;1.33;;
74749;SDS011;63269;53.330;-6.288;2023-04-04T12:18:24;6.63;;;1.83;;
74749;SDS011;63269;53.330;-6.288;2023-04-04T12:20:50;11.52;;;2.03;;
74749;SDS011;63269;53.330;-6.288;2023-04-04T12:23:16;7.90;;;2.15;;
74749;SDS011;63269;53.330;-6.288;2023-04-04T12:25:41;5.95;;;2.05;;
74749;SDS011;63269;53.330;-6.288;2023-04-04T12:28:09;8.73;;;1.85;;
74749;SDS011;63269;53.330;-6.288;2023-04-04T12:30:38;4.00;;;1.40;;
74749;SDS011;63269;53.330;-6.288;2023-04-04T12:33:04;5.95;;;1.65;;
74749;SDS011;63269;53.330;-6.288;2023-04-04T12:35:30;8.80;;;1.90;;
74749;SDS011;63269;53.330;-6.288;2023-04-04T12:38:02;8.27;;;1.92;;
74749;SDS011;63269;53.330;-6.288;2023-04-04T12:40:36;10.85;;;2.40;;
74749;SDS011;63269;53.330;-6.288;2023-04-04T12:43:03;9.50;;;2.38;;
74749;SDS011;63269;53.330;-6.288;2023-04-04T12:45:29;7.53;;;2.05;;
74749;SDS011;63269;53.330;-6.288;2023-04-04T12:47:55;10.60;;;2.80;;
74749;SDS011;63269;53.330;-6.288;2023-04-04T12:50:22;5.03;;;1.88;;
74749;SDS011;63269;53.330;-6.288;2023-04-04T12:52:51;8.10;;;2.10;;
74749;SDS011;63269;53.330;-6.288;2023-04-04T12:55:21;6.78;;;1.88;;
74749;SDS011;63269;53.330;-6.288;2023-04-04T12:57:47;6.35;;;2.13;;
74749;SDS011;63269;53.330;-6.288;2023-04-04T13:00:13;9.52;;;2.45;;
74749;SDS011;63269;53.330;-6.288;2023-04-04T13:02:41;5.70;;;2.25;;
74749;SDS011;63269;53.330;-6.288;2023-04-04T13:05:10;5.78;;;1.75;;
74749;SDS011;63269;53.330;-6.288;2023-04-04T13:07:36;7.90;;;1.90;;
74749;SDS011;63269;53.330;-6.288;2023-04-04T13:10:07;5.88;;;1.65;;
74749;SDS011;63269;53.330;-6.288;2023-04-04T13:15:20;7.57;;;2.20;;
74749;SDS011;63269;53.330;-6.288;2023-04-04T13:17:47;5.78;;;1.60;;
74749;SDS011;63269;53.330;-6.288;2023-04-04T13:20:14;7.38;;;2.10;;
74749;SDS011;63269;53.330;-6.288;2023-04-04T13:22:41;8.45;;;2.00;;
74749;SDS011;63269;53.330;-6.288;2023-04-04T13:25:08;6.32;;;1.70;;
74749;SDS011;63269;53.330;-6.288;2023-04-04T13:27:34;4.72;;;1.80;;
74749;SDS011;63269;53.330;-6.288;2023-04-04T13:30:01;4.28;;;1.70;;
74749;SDS011;63269;53.330;-6.288;2023-04-04T13:32:27;8.52;;;2.78;;
74749;SDS011;63269;53.330;-6.288;2023-04-04T13:34:53;11.38;;;2.25;;
74749;SDS011;63269;53.330;-6.288;2023-04-04T13:37:18;5.82;;;1.75;;
74749;SDS011;63269;53.330;-6.288;2023-04-04T13:39:44;22.17;;;6.90;;
74749;SDS011;63269;53.330;-6.288;2023-04-04T13:42:10;32.15;;;15.60;;
74749;SDS011;63269;53.330;-6.288;2023-04-04T13:44:36;26.17;;;13.15;;
74749;SDS011;63269;53.330;-6.288;2023-04-04T13:47:01;28.17;;;11.85;;
74749;SDS011;63269;53.330;-6.288;2023-04-04T13:49:26;33.17;;;14.60;;
74749;SDS011;63269;53.330;-6.288;2023-04-04T13:51:52;30.48;;;13.77;;
74749;SDS011;63269;53.330;-6.288;2023-04-04T13:54:17;44.28;;;21.45;;
74749;SDS011;63269;53.330;-6.288;2023-04-04T13:56:43;37.78;;;17.23;;
74749;SDS011;63269;53.330;-6.288;2023-04-04T13:59:09;47.80;;;22.60;;
74749;SDS011;63269;53.330;-6.288;2023-04-04T14:01:35;48.92;;;19.83;;
74749;SDS011;63269;53.330;-6.288;2023-04-04T14:04:01;35.25;;;15.07;;
74749;SDS011;63269;53.330;-6.288;2023-04-04T14:06:27;31.08;;;12.98;;
74749;SDS011;63269;53.330;-6.288;2023-04-04T14:08:52;36.85;;;15.43;;
74749;SDS011;63269;53.330;-6.288;2023-04-04T14:11:18;26.92;;;12.13;;
74749;SDS011;63269;53.330;-6.288;2023-04-04T14:13:43;24.70;;;11.57;;
74749;SDS011;63269;53.330;-6.288;2023-04-04T14:16:10;26.83;;;11.90;;
74749;SDS011;63269;53.330;-6.288;2023-04-04T14:18:36;29.05;;;11.20;;
74749;SDS011;63269;53.330;-6.288;2023-04-04T14:21:01;25.35;;;12.02;;
74749;SDS011;63269;53.330;-6.288;2023-04-04T14:23:27;22.45;;;10.23;;
74749;SDS011;63269;53.330;-6.288;2023-04-04T14:25:54;25.30;;;10.60;;
74749;SDS011;63269;53.330;-6.288;2023-04-04T14:28:21;23.00;;;9.90;;
74749;SDS011;63269;53.330;-6.288;2023-04-04T14:30:48;19.42;;;9.38;;
74749;SDS011;63269;53.330;-6.288;2023-04-04T14:33:15;22.23;;;9.85;;
74749;SDS011;63269;53.330;-6.288;2023-04-04T14:35:40;18.25;;;8.85;;
74749;SDS011;63269;53.330;-6.288;2023-04-04T14:38:06;20.35;;;8.27;;
74749;SDS011;63269;53.330;-6.288;2023-04-04T14:40:31;14.57;;;7.50;;
74749;SDS011;63269;53.330;-6.288;2023-04-04T14:42:56;16.88;;;7.53;;
74749;SDS011;63269;53.330;-6.288;2023-04-04T14:45:22;16.48;;;7.47;;
74749;SDS011;63269;53.330;-6.288;2023-04-04T14:47:47;18.20;;;7.80;;
74749;SDS011;63269;53.330;-6.288;2023-04-04T14:50:13;13.48;;;6.30;;
74749;SDS011;63269;53.330;-6.288;2023-04-04T14:52:38;15.50;;;6.18;;
74749;SDS011;63269;53.330;-6.288;2023-04-04T14:55:04;13.82;;;6.40;;